createdAt,value
2023-01-03T00:01:30.899Z,77.20
2023-01-03T00:03:58.951Z,77.10
2023-01-03T00:06:35.096Z,77.10
2023-01-03T00:09:03.808Z,77.20
2023-01-03T00:11:52.230Z,77.30
2023-01-03T00:14:23.380Z,77.30
2023-01-03T00:16:52.528Z,77.40
2023-01-03T00:19:20.137Z,77.50
2023-01-03T00:21:47.126Z,77.50
2023-01-03T00:24:14.523Z,77.50
2023-01-03T00:26:41.730Z,77.50
2023-01-03T00:29:09.541Z,77.50
2023-01-03T00:31:36.861Z,77.70
2023-01-03T00:34:04.138Z,77.80
2023-01-03T00:36:31.697Z,77.80
2023-01-03T00:38:59.028Z,77.80
2023-01-03T00:41:26.296Z,77.80
2023-01-03T00:43:53.695Z,77.80
2023-01-03T00:46:21.267Z,77.90
2023-01-03T00:48:48.511Z,78.10
2023-01-03T00:51:22.184Z,78.20
2023-01-03T00:53:51.145Z,78.10
2023-01-03T00:56:23.509Z,78.10
2023-01-03T00:58:50.767Z,78.20
2023-01-03T01:01:24.199Z,78.20
2023-01-03T01:03:56.108Z,78.00
2023-01-03T01:06:29.413Z,78.00
2023-01-03T01:08:59.066Z,77.90
2023-01-03T01:11:27.478Z,78.00
2023-01-03T01:13:55.331Z,78.20
2023-01-03T01:16:29.277Z,78.20
2023-01-03T01:18:56.374Z,78.20
2023-01-03T01:21:31.583Z,78.10
2023-01-03T01:24:00.220Z,78.10
2023-01-03T01:26:27.453Z,77.80
2023-01-03T01:28:55.258Z,77.70
2023-01-03T01:31:26.310Z,77.60
2023-01-03T01:33:54.425Z,77.70
2023-01-03T01:36:24.108Z,77.90
2023-01-03T01:38:57.410Z,78.10
2023-01-03T01:41:42.900Z,78.00
2023-01-03T01:44:42.261Z,77.90
2023-01-03T01:47:24.074Z,78.10
2023-01-03T01:49:59.316Z,78.10
2023-01-03T01:52:28.360Z,78.20
2023-01-03T01:54:55.922Z,78.20
2023-01-03T01:57:25.361Z,78.20
2023-01-03T01:59:52.373Z,78.20
2023-01-03T02:02:21.600Z,78.20
2023-01-03T02:04:53.238Z,78.30
2023-01-03T02:07:22.819Z,78.30
2023-01-03T02:09:54.479Z,78.40
2023-01-03T02:12:52.061Z,78.40
2023-01-03T02:15:46.329Z,78.30
2023-01-03T02:18:30.259Z,78.20
2023-01-03T02:21:34.874Z,78.20
2023-01-03T02:24:20.692Z,78.40
2023-01-03T02:27:10.723Z,78.60
2023-01-03T02:29:46.555Z,78.50
2023-01-03T02:32:40.793Z,78.40
2023-01-03T02:35:16.595Z,78.60
2023-01-03T02:37:54.823Z,78.60
2023-01-03T02:40:39.434Z,78.80
2023-01-03T02:43:31.947Z,79.00
2023-01-03T02:46:27.352Z,79.00
2023-01-03T02:48:56.968Z,79.00
2023-01-03T02:51:27.998Z,79.20
2023-01-03T02:53:55.772Z,79.30
2023-01-03T02:56:48.552Z,79.20
2023-01-03T02:59:19.926Z,79.30
2023-01-03T03:01:51.026Z,79.30
2023-01-03T03:04:19.883Z,79.20
2023-01-03T03:07:12.286Z,79.20
2023-01-03T03:09:59.304Z,79.20
2023-01-03T03:12:47.766Z,79.20
2023-01-03T03:15:17.774Z,79.30
2023-01-03T03:17:46.843Z,79.30
2023-01-03T03:20:35.110Z,80.10
2023-01-03T03:23:28.529Z,79.40
2023-01-03T03:25:56.698Z,79.20
2023-01-03T03:28:37.493Z,79.40
2023-01-03T03:31:19.493Z,79.40
2023-01-03T03:33:51.985Z,79.20
2023-01-03T03:36:30.853Z,79.10
2023-01-03T03:38:58.063Z,79.00
2023-01-03T03:41:43.522Z,79.10
2023-01-03T03:44:54.553Z,79.40
2023-01-03T03:47:24.372Z,79.50
2023-01-03T03:49:54.913Z,79.40
2023-01-03T03:52:27.636Z,79.30
2023-01-03T03:55:00.881Z,79.40
2023-01-03T03:57:38.914Z,79.40
2023-01-03T04:00:14.441Z,79.30
2023-01-03T04:02:47.010Z,79.30
2023-01-03T04:05:17.918Z,79.00
2023-01-03T04:07:44.966Z,79.10
2023-01-03T04:10:13.964Z,79.40
2023-01-03T04:12:40.857Z,79.50
2023-01-03T04:15:08.295Z,79.40
2023-01-03T04:17:35.164Z,79.30
2023-01-03T04:20:02.266Z,79.20
2023-01-03T04:22:29.315Z,79.50
2023-01-03T04:24:56.287Z,79.60
2023-01-03T04:27:23.153Z,79.70
2023-01-03T04:29:50.116Z,79.60
2023-01-03T04:32:17.060Z,79.60
2023-01-03T04:34:44.067Z,79.60
2023-01-03T04:37:10.933Z,79.80
2023-01-03T04:39:37.822Z,79.90
2023-01-03T04:42:25.100Z,80.00
2023-01-03T04:44:51.943Z,80.20
2023-01-03T04:47:19.525Z,80.30
2023-01-03T04:49:47.515Z,80.40
2023-01-03T04:52:16.073Z,80.50
2023-01-03T04:54:43.564Z,80.50
2023-01-03T04:57:10.893Z,80.30
2023-01-03T04:59:37.941Z,80.00
2023-01-03T05:02:05.311Z,80.00
2023-01-03T05:04:32.634Z,79.90
2023-01-03T05:06:59.541Z,79.80
2023-01-03T05:09:27.389Z,79.70
2023-01-03T05:11:54.715Z,79.60
2023-01-03T05:14:21.552Z,79.80
2023-01-03T05:16:48.555Z,79.80
2023-01-03T05:19:15.667Z,79.80
2023-01-03T05:22:00.855Z,79.90
2023-01-03T05:24:57.038Z,79.90
2023-01-03T05:27:24.049Z,79.80
2023-01-03T05:29:52.553Z,79.70
2023-01-03T05:32:19.509Z,79.70
2023-01-03T05:34:46.901Z,80.00
2023-01-03T05:37:14.352Z,80.20
2023-01-03T05:39:41.286Z,80.10
2023-01-03T05:42:08.177Z,80.20
2023-01-03T05:44:35.149Z,80.30
2023-01-03T05:47:04.848Z,80.50
2023-01-03T05:49:31.801Z,80.70
2023-01-03T05:51:58.747Z,80.80
2023-01-03T05:54:26.182Z,81.00
2023-01-03T05:56:53.071Z,81.30
2023-01-03T05:59:21.218Z,81.60
2023-01-03T06:01:48.817Z,81.60
2023-01-03T06:04:15.891Z,81.70
2023-01-03T06:06:42.883Z,81.70
2023-01-03T06:09:09.980Z,81.70
2023-01-03T06:11:36.866Z,81.80
2023-01-03T06:14:03.739Z,81.90
2023-01-03T06:16:49.083Z,81.90
2023-01-03T06:19:15.976Z,81.80
2023-01-03T06:21:43.262Z,81.80
2023-01-03T06:24:10.390Z,81.70
2023-01-03T06:26:37.798Z,81.60
2023-01-03T06:29:05.622Z,81.50
2023-01-03T06:31:32.732Z,81.40
2023-01-03T06:33:59.734Z,81.40
2023-01-03T06:36:26.626Z,81.40
2023-01-03T06:38:54.067Z,81.70
2023-01-03T06:41:21.415Z,81.80
2023-01-03T06:43:48.301Z,81.80
2023-01-03T06:46:33.903Z,81.70
2023-01-03T06:49:19.800Z,81.70
2023-01-03T06:52:07.862Z,81.60
2023-01-03T06:54:37.988Z,81.50
2023-01-03T06:57:05.504Z,81.60
2023-01-03T06:59:32.649Z,81.60
2023-01-03T07:01:59.720Z,81.60
2023-01-03T07:04:27.040Z,81.60
2023-01-03T07:06:54.248Z,81.60
2023-01-03T07:09:21.417Z,81.30
2023-01-03T07:11:48.470Z,81.20
2023-01-03T07:14:15.619Z,81.30
2023-01-03T07:16:46.476Z,81.20
2023-01-03T07:19:18.532Z,81.20
2023-01-03T07:21:46.132Z,81.00
2023-01-03T07:24:15.713Z,81.10
2023-01-03T07:26:42.672Z,81.20
2023-01-03T07:29:10.568Z,81.30
2023-01-03T07:31:41.720Z,81.20
2023-01-03T07:34:09.809Z,81.40
2023-01-03T07:36:36.893Z,82.20
2023-01-03T07:39:03.926Z,81.40
2023-01-03T07:41:49.393Z,81.20
2023-01-03T07:44:16.412Z,81.10
2023-01-03T07:46:43.398Z,81.10
2023-01-03T07:49:12.160Z,81.10
2023-01-03T07:51:39.460Z,81.20
2023-01-03T07:54:07.753Z,81.10
2023-01-03T07:56:35.401Z,81.20
2023-01-03T07:59:02.569Z,81.20
2023-01-03T08:01:31.169Z,81.30
2023-01-03T08:03:58.380Z,81.30
2023-01-03T08:06:25.822Z,81.30
2023-01-03T08:09:16.663Z,81.20
2023-01-03T08:12:02.090Z,81.10
2023-01-03T08:14:28.957Z,81.00
2023-01-03T08:16:56.212Z,81.00
2023-01-03T08:19:24.445Z,80.80
2023-01-03T08:21:51.524Z,80.70
2023-01-03T08:24:18.541Z,80.70
2023-01-03T08:26:45.497Z,80.60
2023-01-03T08:29:12.731Z,80.80
2023-01-03T08:31:44.129Z,80.70
2023-01-03T08:34:18.464Z,80.80
2023-01-03T08:36:53.083Z,80.70
2023-01-03T08:39:24.444Z,80.50
2023-01-03T08:41:57.551Z,80.50
2023-01-03T08:44:25.673Z,80.40
2023-01-03T08:46:56.022Z,80.30
2023-01-03T08:49:23.478Z,80.20
2023-01-03T08:51:50.533Z,80.20
2023-01-03T08:54:17.395Z,80.10
2023-01-03T08:56:44.577Z,80.00
2023-01-03T08:59:11.459Z,80.00
2023-01-03T09:01:38.419Z,79.80
2023-01-03T09:04:05.790Z,79.70
2023-01-03T09:06:34.136Z,79.60
2023-01-03T09:09:08.736Z,79.70
2023-01-03T09:11:35.764Z,79.60
2023-01-03T09:14:02.695Z,79.50
2023-01-03T09:16:29.803Z,79.50
2023-01-03T09:18:56.789Z,79.40
2023-01-03T09:21:23.877Z,79.10
2023-01-03T09:23:51.864Z,79.00
2023-01-03T09:26:18.760Z,78.80
2023-01-03T09:28:45.668Z,78.80
2023-01-03T09:31:12.656Z,78.80
2023-01-03T09:33:39.637Z,78.80
2023-01-03T09:36:06.946Z,78.80
2023-01-03T09:38:34.031Z,78.80
2023-01-03T09:41:22.125Z,78.80
2023-01-03T09:43:52.159Z,78.70
2023-01-03T09:46:22.634Z,78.60
2023-01-03T09:48:50.583Z,78.50
2023-01-03T09:51:40.674Z,78.40
2023-01-03T09:54:48.284Z,78.20
2023-01-03T09:57:42.244Z,78.00
2023-01-03T10:00:57.181Z,77.80
2023-01-03T10:03:51.047Z,77.50
2023-01-03T10:06:45.459Z,77.30
2023-01-03T10:09:40.104Z,76.80
2023-01-03T10:12:09.813Z,76.60
2023-01-03T10:14:44.360Z,76.80
2023-01-03T10:17:48.241Z,77.10
2023-01-03T10:20:15.213Z,77.30
2023-01-03T10:22:42.274Z,77.60
2023-01-03T10:25:15.615Z,77.80
2023-01-03T10:27:47.157Z,78.30
2023-01-03T10:30:18.119Z,78.50
2023-01-03T10:33:06.030Z,78.70
2023-01-03T10:35:36.017Z,78.80
2023-01-03T10:38:03.610Z,78.70
2023-01-03T10:40:47.429Z,78.60
2023-01-03T10:43:17.438Z,78.40
2023-01-03T10:46:02.611Z,78.40
2023-01-03T10:49:17.466Z,78.50
2023-01-03T10:51:55.863Z,78.60
2023-01-03T10:54:43.774Z,78.60
2023-01-03T10:57:48.796Z,78.70
2023-01-03T11:00:35.863Z,78.60
2023-01-03T11:03:24.232Z,78.40
2023-01-03T11:06:00.544Z,78.30
2023-01-03T11:08:48.696Z,78.20
2023-01-03T11:11:32.820Z,78.30
2023-01-03T11:14:26.214Z,78.50
2023-01-03T11:16:57.885Z,78.80
2023-01-03T11:19:28.411Z,78.80
2023-01-03T11:22:03.599Z,79.00
2023-01-03T11:24:36.323Z,79.40
2023-01-03T11:27:14.415Z,79.50
2023-01-03T11:30:02.463Z,79.40
2023-01-03T11:32:55.904Z,79.60
2023-01-03T11:35:25.857Z,79.70
2023-01-03T11:38:17.481Z,79.80
2023-01-03T11:40:49.597Z,79.60
2023-01-03T11:43:54.613Z,79.70
2023-01-03T11:46:27.338Z,79.80
2023-01-03T11:49:27.416Z,79.90
2023-01-03T11:52:18.815Z,79.70
2023-01-03T11:55:13.036Z,79.80
2023-01-03T11:58:02.477Z,79.80
2023-01-03T12:01:08.201Z,79.60
2023-01-03T12:03:55.791Z,79.40
2023-01-03T12:06:30.931Z,79.40
2023-01-03T12:09:17.399Z,79.40
2023-01-03T12:11:56.782Z,79.40
2023-01-03T12:14:37.493Z,79.40
2023-01-03T12:17:48.641Z,79.50
2023-01-03T12:20:27.545Z,79.80
2023-01-03T12:23:15.718Z,79.60
2023-01-03T12:25:48.168Z,79.80
2023-01-03T12:28:26.464Z,79.80
2023-01-03T12:31:04.535Z,79.70
2023-01-03T12:33:42.582Z,80.40
2023-01-03T12:36:47.626Z,79.60
2023-01-03T12:39:33.476Z,79.30
2023-01-03T12:42:04.202Z,79.00
2023-01-03T12:44:42.345Z,79.00
2023-01-03T12:47:32.968Z,79.00
2023-01-03T12:50:15.728Z,78.80
2023-01-03T12:52:44.762Z,78.80
2023-01-03T12:55:20.911Z,78.70
2023-01-03T12:58:18.095Z,78.60
2023-01-03T13:01:00.809Z,78.50
2023-01-03T13:03:42.169Z,78.30
2023-01-03T13:06:30.790Z,78.20
2023-01-03T13:08:57.925Z,78.00
2023-01-03T13:11:35.763Z,77.80
2023-01-03T13:14:18.050Z,77.60
2023-01-03T13:16:53.578Z,77.40
2023-01-03T13:19:20.521Z,77.40
2023-01-03T13:22:00.194Z,77.40
2023-01-03T13:24:39.276Z,77.40
2023-01-03T13:27:21.265Z,77.20
2023-01-03T13:29:51.255Z,77.00
2023-01-03T13:32:18.184Z,76.90
2023-01-03T13:35:01.331Z,76.70
2023-01-03T13:37:47.080Z,76.50
2023-01-03T13:40:39.348Z,75.90
2023-01-03T13:43:18.703Z,75.20
2023-01-03T13:45:45.641Z,74.60
2023-01-03T13:48:20.855Z,74.10
2023-01-03T13:51:07.357Z,73.00
2023-01-03T13:53:55.397Z,72.50
2023-01-03T13:56:26.473Z,72.30
2023-01-03T13:59:07.234Z,72.20
2023-01-03T14:01:49.393Z,72.20
2023-01-03T14:04:40.735Z,72.10
2023-01-03T14:07:10.538Z,72.20
2023-01-03T14:09:49.486Z,72.20
2023-01-03T14:12:31.053Z,72.40
2023-01-03T14:14:58.798Z,72.20
2023-01-03T14:17:36.133Z,72.20
2023-01-03T14:20:09.412Z,72.20
2023-01-03T14:22:44.207Z,72.20
2023-01-03T14:25:33.312Z,72.40
2023-01-03T14:28:15.320Z,71.80
2023-01-03T14:30:43.611Z,71.40
2023-01-03T14:33:26.096Z,71.10
2023-01-03T14:36:08.258Z,71.10
2023-01-03T14:38:36.023Z,71.00
2023-01-03T14:41:03.361Z,70.90
2023-01-03T14:43:33.273Z,71.10
2023-01-03T14:46:12.087Z,71.10
2023-01-03T14:48:39.470Z,71.30
2023-01-03T14:51:07.633Z,71.40
2023-01-03T14:53:37.736Z,71.30
2023-01-03T14:56:05.099Z,71.40
2023-01-03T14:58:33.326Z,71.40
2023-01-03T15:01:03.684Z,71.40
2023-01-03T15:03:37.069Z,71.50
2023-01-03T15:06:18.415Z,71.80
2023-01-03T15:08:48.826Z,72.00
2023-01-03T15:11:24.223Z,72.20
2023-01-03T15:14:14.538Z,72.40
2023-01-03T15:16:42.615Z,72.70
2023-01-03T15:19:12.461Z,72.70
2023-01-03T15:21:41.263Z,72.90
2023-01-03T15:24:26.783Z,73.20
2023-01-03T15:26:53.972Z,73.40
2023-01-03T15:29:25.692Z,73.40
2023-01-03T15:31:55.743Z,73.60
2023-01-03T15:34:28.843Z,73.80
2023-01-03T15:37:17.626Z,74.00
2023-01-03T15:39:50.059Z,74.20
2023-01-03T15:42:47.107Z,74.50
2023-01-03T15:45:16.044Z,74.60
2023-01-03T15:47:43.657Z,74.80
2023-01-03T15:50:14.698Z,75.00
2023-01-03T15:52:41.690Z,75.20
2023-01-03T15:55:12.379Z,75.10
2023-01-03T15:57:39.605Z,75.30
2023-01-03T16:00:11.018Z,75.30
2023-01-03T16:02:39.136Z,75.30
2023-01-03T16:05:08.531Z,75.40
2023-01-03T16:07:36.561Z,75.50
2023-01-03T16:10:03.633Z,75.50
2023-01-03T16:12:36.633Z,75.50
2023-01-03T16:15:09.249Z,76.40
2023-01-03T16:17:38.566Z,75.90
2023-01-03T16:20:21.003Z,76.00
2023-01-03T16:23:00.972Z,76.10
2023-01-03T16:25:29.586Z,76.30
2023-01-03T16:27:57.261Z,76.20
2023-01-03T16:34:33.413Z,76.50
2023-01-03T16:37:00.768Z,76.60
2023-01-03T16:39:27.763Z,76.80
2023-01-03T16:42:14.172Z,76.90
2023-01-03T16:44:43.684Z,76.90
2023-01-03T16:47:22.113Z,77.00
2023-01-03T16:50:31.321Z,76.80
2023-01-03T16:57:22.398Z,76.90
2023-01-03T17:02:45.862Z,77.00
2023-01-03T17:09:20.717Z,77.40
2023-01-03T17:12:06.714Z,77.50
2023-01-03T17:14:36.869Z,77.70
2023-01-03T17:17:03.804Z,77.80
2023-01-03T17:22:21.554Z,78.10
2023-01-03T17:24:50.435Z,78.20
2023-01-03T17:27:32.559Z,78.10
2023-01-03T17:30:04.450Z,78.20
2023-01-03T17:32:31.713Z,78.20
2023-01-03T17:34:58.660Z,78.00
2023-01-03T17:37:26.367Z,77.90
2023-01-03T17:39:56.885Z,77.50
2023-01-03T17:42:25.776Z,77.30
2023-01-03T17:45:11.524Z,77.30
2023-01-03T17:48:02.249Z,77.10
2023-01-03T17:50:30.862Z,76.90
2023-01-03T17:52:58.746Z,76.80
2023-01-03T17:55:28.936Z,76.90
2023-01-03T17:57:57.205Z,76.90
2023-01-03T18:00:28.292Z,76.80
2023-01-03T18:02:56.003Z,77.00
2023-01-03T18:05:28.529Z,77.00
2023-01-03T18:07:58.530Z,77.10
2023-01-03T18:10:47.352Z,77.20
2023-01-03T18:13:25.191Z,77.20
2023-01-03T18:15:53.018Z,77.30
2023-01-03T18:18:22.325Z,77.30
2023-01-03T18:20:49.906Z,77.30
2023-01-03T18:23:31.980Z,77.20
2023-01-03T18:26:01.930Z,77.20
2023-01-03T18:28:29.171Z,77.20
2023-01-03T18:30:57.036Z,77.20
2023-01-03T18:33:25.054Z,77.10
2023-01-03T18:35:52.803Z,77.30
2023-01-03T18:38:29.906Z,77.40
2023-01-03T18:41:02.511Z,77.50
2023-01-03T18:43:31.920Z,77.40
2023-01-03T18:45:58.887Z,77.40
2023-01-03T18:48:25.856Z,77.40
2023-01-03T18:50:58.870Z,78.00
2023-01-03T18:53:31.177Z,77.70
2023-01-03T18:55:58.657Z,77.60
2023-01-03T18:58:35.278Z,77.70
2023-01-03T19:01:03.162Z,77.70
2023-01-03T19:03:32.632Z,77.60
2023-01-03T19:06:00.981Z,77.60
2023-01-03T19:08:33.191Z,77.60
2023-01-03T19:11:05.925Z,77.50
2023-01-03T19:13:54.704Z,77.60
2023-01-03T19:16:34.415Z,77.50
2023-01-03T19:19:01.988Z,77.60
2023-01-03T19:21:35.795Z,77.60
2023-01-03T19:24:07.675Z,77.50
2023-01-03T19:26:57.022Z,77.60
2023-01-03T19:29:27.580Z,77.70
2023-01-03T19:31:57.066Z,77.70
2023-01-03T19:34:26.495Z,77.60
2023-01-03T19:36:54.571Z,77.60
2023-01-03T19:39:25.914Z,77.70
2023-01-03T19:42:18.246Z,77.70
2023-01-03T19:44:45.459Z,77.50
2023-01-03T19:47:18.232Z,77.60
2023-01-03T19:49:47.301Z,77.60
2023-01-03T19:52:15.236Z,77.60
2023-01-03T19:54:42.481Z,77.60
2023-01-03T19:57:24.193Z,77.70
2023-01-03T19:59:58.960Z,77.80
2023-01-03T20:02:26.353Z,77.80
2023-01-03T20:04:53.545Z,77.90
2023-01-03T20:07:20.623Z,77.90
2023-01-03T20:09:47.596Z,77.90
2023-01-03T20:12:18.614Z,78.00
2023-01-03T20:14:52.012Z,77.90
2023-01-03T20:17:25.003Z,77.90
2023-01-03T20:19:52.651Z,77.90
2023-01-03T20:23:02.521Z,77.90
2023-01-03T20:25:35.597Z,77.80
2023-01-03T20:28:03.163Z,77.80
2023-01-03T20:30:32.064Z,77.70
2023-01-03T20:32:59.434Z,77.70
2023-01-03T20:38:20.980Z,77.60
2023-01-03T20:40:47.883Z,77.60
2023-01-03T20:43:17.256Z,78.20
2023-01-03T20:45:45.260Z,77.50
2023-01-03T20:48:21.250Z,77.40
2023-01-03T20:50:52.216Z,77.60
2023-01-03T20:53:22.548Z,77.60
2023-01-03T20:55:51.061Z,77.60
2023-01-03T20:58:20.413Z,77.50
2023-01-03T21:00:50.730Z,77.50
2023-01-03T21:03:17.789Z,77.60
2023-01-03T21:05:44.961Z,77.70
2023-01-03T21:08:34.831Z,77.60
2023-01-03T21:11:02.058Z,77.70
2023-01-03T21:13:29.289Z,77.70
2023-01-03T21:15:56.498Z,77.70
2023-01-03T21:18:23.460Z,77.60
2023-01-03T21:20:50.446Z,77.70
2023-01-03T21:23:19.986Z,77.80
2023-01-03T21:25:47.650Z,77.70
2023-01-03T21:28:15.120Z,77.90
2023-01-03T21:30:42.713Z,77.90
2023-01-03T21:33:17.467Z,78.00
2023-01-03T21:35:45.016Z,78.00
2023-01-03T21:38:12.532Z,78.10
2023-01-03T21:40:39.505Z,78.00
2023-01-03T21:43:06.739Z,77.80
2023-01-03T21:45:38.949Z,78.20
2023-01-03T21:48:10.154Z,78.20
2023-01-03T21:50:45.732Z,78.10
2023-01-03T21:53:14.147Z,78.30
2023-01-03T21:55:41.257Z,78.40
2023-01-03T21:58:08.407Z,78.30
2023-01-03T22:00:35.485Z,78.30
2023-01-03T22:03:21.000Z,78.20
2023-01-03T22:05:47.979Z,78.30
2023-01-03T22:08:14.832Z,78.30
2023-01-03T22:10:42.435Z,78.40
2023-01-03T22:13:10.594Z,78.70
2023-01-03T22:15:39.567Z,78.50
2023-01-03T22:18:09.035Z,78.70
2023-01-03T22:20:38.784Z,78.80
2023-01-03T22:23:08.353Z,78.70
2023-01-03T22:25:35.565Z,78.40
2023-01-03T22:28:02.581Z,78.40
2023-01-03T22:30:29.612Z,78.20
2023-01-03T22:32:57.766Z,78.20
2023-01-03T22:35:24.864Z,78.40
2023-01-03T22:37:51.856Z,78.40
2023-01-03T22:40:18.982Z,78.50
2023-01-03T22:42:45.874Z,78.50
2023-01-03T22:45:15.409Z,78.40
2023-01-03T22:47:42.559Z,78.30
2023-01-03T22:50:10.621Z,78.30
2023-01-03T22:52:39.595Z,78.40
2023-01-03T22:55:08.037Z,78.40
2023-01-03T22:57:35.015Z,78.50
2023-01-03T23:00:02.062Z,78.40
2023-01-03T23:02:29.810Z,78.70
2023-01-03T23:04:57.847Z,78.80
2023-01-03T23:07:24.725Z,78.80
2023-01-03T23:09:52.093Z,78.80
2023-01-03T23:12:37.499Z,78.80
2023-01-03T23:15:04.968Z,78.60
2023-01-03T23:17:50.297Z,78.80
2023-01-03T23:20:17.230Z,78.90
2023-01-03T23:22:44.153Z,78.80
2023-01-03T23:25:11.081Z,78.60
2023-01-03T23:27:38.004Z,78.70
2023-01-03T23:30:05.573Z,78.90
2023-01-03T23:32:33.121Z,79.50
2023-01-03T23:35:00.006Z,79.80
2023-01-03T23:37:27.406Z,79.90
2023-01-03T23:39:54.304Z,79.90
2023-01-03T23:42:21.256Z,79.90
2023-01-03T23:44:48.225Z,79.90
2023-01-03T23:47:15.140Z,80.20
2023-01-03T23:49:42.032Z,80.50
2023-01-03T23:52:08.987Z,80.70
2023-01-03T23:54:35.903Z,80.90
2023-01-03T23:57:02.896Z,81.00
2023-01-03T23:59:29.791Z,81.10
